sensor_id;sensor_type;location;lat;lon;timestamp;P1;durP1;ratioP1;P2;durP2;ratioP2
4547;SDS011;2286;51.570;7.090;2022-12-07T00:01:20;27.23;;;24.63;;
4547;SDS011;2286;51.570;7.090;2022-12-07T00:03:49;27.57;;;24.13;;
4547;SDS011;2286;51.570;7.090;2022-12-07T00:06:18;26.23;;;23.43;;
4547;SDS011;2286;51.570;7.090;2022-12-07T00:08:46;27.80;;;24.90;;
4547;SDS011;2286;51.570;7.090;2022-12-07T00:11:15;26.98;;;24.30;;
4547;SDS011;2286;51.570;7.090;2022-12-07T00:13:43;29.03;;;25.03;;
4547;SDS011;2286;51.570;7.090;2022-12-07T00:16:11;26.92;;;24.15;;
4547;SDS011;2286;51.570;7.090;2022-12-07T00:18:41;31.43;;;24.10;;
4547;SDS011;2286;51.570;7.090;2022-12-07T00:21:09;26.20;;;23.50;;
4547;SDS011;2286;51.570;7.090;2022-12-07T00:23:38;27.57;;;24.70;;
4547;SDS011;2286;51.570;7.090;2022-12-07T00:26:06;28.30;;;25.50;;
4547;SDS011;2286;51.570;7.090;2022-12-07T00:28:33;26.10;;;23.33;;
4547;SDS011;2286;51.570;7.090;2022-12-07T00:31:01;29.83;;;24.00;;
4547;SDS011;2286;51.570;7.090;2022-12-07T00:33:32;27.20;;;24.00;;
4547;SDS011;2286;51.570;7.090;2022-12-07T00:36:01;31.10;;;24.25;;
4547;SDS011;2286;51.570;7.090;2022-12-07T00:38:30;28.10;;;25.10;;
4547;SDS011;2286;51.570;7.090;2022-12-07T00:40:59;29.20;;;26.30;;
4547;SDS011;2286;51.570;7.090;2022-12-07T00:43:27;27.07;;;24.30;;
4547;SDS011;2286;51.570;7.090;2022-12-07T00:45:55;29.37;;;26.27;;
4547;SDS011;2286;51.570;7.090;2022-12-07T00:48:22;29.30;;;26.13;;
4547;SDS011;2286;51.570;7.090;2022-12-07T00:50:49;29.00;;;25.93;;
4547;SDS011;2286;51.570;7.090;2022-12-07T00:53:18;30.17;;;26.93;;
4547;SDS011;2286;51.570;7.090;2022-12-07T00:55:45;30.03;;;26.97;;
4547;SDS011;2286;51.570;7.090;2022-12-07T00:58:12;30.90;;;26.60;;
4547;SDS011;2286;51.570;7.090;2022-12-07T01:00:40;28.10;;;25.23;;
4547;SDS011;2286;51.570;7.090;2022-12-07T01:03:09;29.27;;;26.10;;
4547;SDS011;2286;51.570;7.090;2022-12-07T01:05:37;30.40;;;27.10;;
4547;SDS011;2286;51.570;7.090;2022-12-07T01:08:04;29.80;;;26.90;;
4547;SDS011;2286;51.570;7.090;2022-12-07T01:10:33;30.00;;;27.00;;
4547;SDS011;2286;51.570;7.090;2022-12-07T01:13:00;29.77;;;26.80;;
4547;SDS011;2286;51.570;7.090;2022-12-07T01:15:27;29.87;;;26.53;;
4547;SDS011;2286;51.570;7.090;2022-12-07T01:17:53;30.80;;;27.70;;
4547;SDS011;2286;51.570;7.090;2022-12-07T01:20:20;30.50;;;27.40;;
4547;SDS011;2286;51.570;7.090;2022-12-07T01:22:47;30.90;;;27.70;;
4547;SDS011;2286;51.570;7.090;2022-12-07T01:25:14;32.28;;;28.55;;
4547;SDS011;2286;51.570;7.090;2022-12-07T01:27:42;33.70;;;29.20;;
4547;SDS011;2286;51.570;7.090;2022-12-07T01:30:09;32.43;;;28.80;;
4547;SDS011;2286;51.570;7.090;2022-12-07T01:32:37;33.83;;;30.23;;
4547;SDS011;2286;51.570;7.090;2022-12-07T01:35:04;31.50;;;28.53;;
4547;SDS011;2286;51.570;7.090;2022-12-07T01:37:33;32.10;;;28.90;;
4547;SDS011;2286;51.570;7.090;2022-12-07T01:40:02;33.53;;;30.03;;
4547;SDS011;2286;51.570;7.090;2022-12-07T01:42:30;31.73;;;28.73;;
4547;SDS011;2286;51.570;7.090;2022-12-07T01:48:11;38.73;;;29.93;;
4547;SDS011;2286;51.570;7.090;2022-12-07T01:50:41;34.80;;;30.83;;
4547;SDS011;2286;51.570;7.090;2022-12-07T01:53:11;31.40;;;28.33;;
4547;SDS011;2286;51.570;7.090;2022-12-07T01:55:40;33.27;;;29.73;;
4547;SDS011;2286;51.570;7.090;2022-12-07T01:58:10;34.00;;;30.57;;
4547;SDS011;2286;51.570;7.090;2022-12-07T02:00:38;33.10;;;29.70;;
4547;SDS011;2286;51.570;7.090;2022-12-07T02:03:08;33.80;;;30.30;;
4547;SDS011;2286;51.570;7.090;2022-12-07T02:05:38;33.17;;;29.57;;
4547;SDS011;2286;51.570;7.090;2022-12-07T02:08:07;33.70;;;30.13;;
4547;SDS011;2286;51.570;7.090;2022-12-07T02:10:36;33.20;;;30.00;;
4547;SDS011;2286;51.570;7.090;2022-12-07T02:13:04;32.87;;;29.53;;
4547;SDS011;2286;51.570;7.090;2022-12-07T02:15:38;35.27;;;31.57;;
4547;SDS011;2286;51.570;7.090;2022-12-07T02:18:15;34.70;;;31.07;;
4547;SDS011;2286;51.570;7.090;2022-12-07T02:20:47;34.10;;;30.80;;
4547;SDS011;2286;51.570;7.090;2022-12-07T02:23:29;35.28;;;31.58;;
4547;SDS011;2286;51.570;7.090;2022-12-07T02:29:30;36.70;;;32.27;;
4547;SDS011;2286;51.570;7.090;2022-12-07T02:32:02;36.87;;;33.07;;
4547;SDS011;2286;51.570;7.090;2022-12-07T02:34:37;36.63;;;31.92;;
4547;SDS011;2286;51.570;7.090;2022-12-07T02:37:12;35.60;;;31.80;;
4547;SDS011;2286;51.570;7.090;2022-12-07T02:39:47;35.45;;;31.65;;
4547;SDS011;2286;51.570;7.090;2022-12-07T02:42:23;38.13;;;33.92;;
4547;SDS011;2286;51.570;7.090;2022-12-07T02:44:56;40.42;;;32.97;;
4547;SDS011;2286;51.570;7.090;2022-12-07T02:47:24;38.05;;;34.03;;
4547;SDS011;2286;51.570;7.090;2022-12-07T02:49:52;37.55;;;32.63;;
4547;SDS011;2286;51.570;7.090;2022-12-07T02:52:19;36.80;;;31.75;;
4547;SDS011;2286;51.570;7.090;2022-12-07T02:54:46;35.10;;;31.40;;
4547;SDS011;2286;51.570;7.090;2022-12-07T02:57:17;38.90;;;33.13;;
4547;SDS011;2286;51.570;7.090;2022-12-07T03:00:03;44.47;;;31.77;;
4547;SDS011;2286;51.570;7.090;2022-12-07T03:02:35;40.05;;;32.92;;
4547;SDS011;2286;51.570;7.090;2022-12-07T03:05:14;41.50;;;33.13;;
4547;SDS011;2286;51.570;7.090;2022-12-07T03:07:49;37.03;;;33.05;;
4547;SDS011;2286;51.570;7.090;2022-12-07T03:10:24;39.88;;;33.78;;
4547;SDS011;2286;51.570;7.090;2022-12-07T03:13:02;38.60;;;33.53;;
4547;SDS011;2286;51.570;7.090;2022-12-07T03:15:35;45.42;;;35.13;;
4547;SDS011;2286;51.570;7.090;2022-12-07T03:18:09;38.05;;;33.00;;
4547;SDS011;2286;51.570;7.090;2022-12-07T03:20:40;39.75;;;35.28;;
4547;SDS011;2286;51.570;7.090;2022-12-07T03:23:08;39.70;;;35.45;;
4547;SDS011;2286;51.570;7.090;2022-12-07T03:25:38;41.22;;;35.08;;
4547;SDS011;2286;51.570;7.090;2022-12-07T03:28:07;45.20;;;36.63;;
4547;SDS011;2286;51.570;7.090;2022-12-07T03:30:37;43.30;;;35.88;;
4547;SDS011;2286;51.570;7.090;2022-12-07T03:33:09;44.72;;;35.22;;
4547;SDS011;2286;51.570;7.090;2022-12-07T03:35:40;42.97;;;36.25;;
4547;SDS011;2286;51.570;7.090;2022-12-07T03:38:11;41.47;;;35.53;;
4547;SDS011;2286;51.570;7.090;2022-12-07T03:40:43;47.35;;;36.70;;
4547;SDS011;2286;51.570;7.090;2022-12-07T03:43:14;44.20;;;35.83;;
4547;SDS011;2286;51.570;7.090;2022-12-07T03:45:44;44.53;;;36.67;;
4547;SDS011;2286;51.570;7.090;2022-12-07T03:48:20;44.92;;;36.78;;
4547;SDS011;2286;51.570;7.090;2022-12-07T03:50:52;47.75;;;38.25;;
4547;SDS011;2286;51.570;7.090;2022-12-07T03:53:28;44.50;;;34.75;;
4547;SDS011;2286;51.570;7.090;2022-12-07T03:55:59;48.42;;;34.83;;
4547;SDS011;2286;51.570;7.090;2022-12-07T03:58:28;40.80;;;34.53;;
4547;SDS011;2286;51.570;7.090;2022-12-07T04:00:57;45.03;;;33.88;;
4547;SDS011;2286;51.570;7.090;2022-12-07T04:03:24;42.38;;;34.08;;
4547;SDS011;2286;51.570;7.090;2022-12-07T04:05:51;42.67;;;35.22;;
4547;SDS011;2286;51.570;7.090;2022-12-07T04:08:18;42.00;;;33.85;;
4547;SDS011;2286;51.570;7.090;2022-12-07T04:10:45;35.03;;;31.15;;
4547;SDS011;2286;51.570;7.090;2022-12-07T04:13:12;39.67;;;31.58;;
4547;SDS011;2286;51.570;7.090;2022-12-07T04:15:39;37.60;;;32.08;;
4547;SDS011;2286;51.570;7.090;2022-12-07T04:18:07;37.88;;;32.67;;
4547;SDS011;2286;51.570;7.090;2022-12-07T04:20:34;36.13;;;32.13;;
4547;SDS011;2286;51.570;7.090;2022-12-07T04:23:00;38.92;;;32.65;;
4547;SDS011;2286;51.570;7.090;2022-12-07T04:25:27;35.28;;;30.70;;
4547;SDS011;2286;51.570;7.090;2022-12-07T04:27:54;37.30;;;31.58;;
4547;SDS011;2286;51.570;7.090;2022-12-07T04:30:21;37.63;;;30.10;;
4547;SDS011;2286;51.570;7.090;2022-12-07T04:32:47;33.40;;;29.08;;
4547;SDS011;2286;51.570;7.090;2022-12-07T04:35:16;35.03;;;29.63;;
4547;SDS011;2286;51.570;7.090;2022-12-07T04:37:43;37.22;;;30.00;;
4547;SDS011;2286;51.570;7.090;2022-12-07T04:40:10;35.90;;;30.48;;
4547;SDS011;2286;51.570;7.090;2022-12-07T04:42:39;36.22;;;29.00;;
4547;SDS011;2286;51.570;7.090;2022-12-07T04:45:06;36.72;;;30.40;;
4547;SDS011;2286;51.570;7.090;2022-12-07T04:47:34;40.67;;;30.85;;
4547;SDS011;2286;51.570;7.090;2022-12-07T04:50:01;33.03;;;29.02;;
4547;SDS011;2286;51.570;7.090;2022-12-07T04:52:29;38.47;;;29.63;;
4547;SDS011;2286;51.570;7.090;2022-12-07T04:54:55;36.22;;;29.23;;
4547;SDS011;2286;51.570;7.090;2022-12-07T04:57:22;37.85;;;29.77;;
4547;SDS011;2286;51.570;7.090;2022-12-07T04:59:49;36.58;;;29.55;;
4547;SDS011;2286;51.570;7.090;2022-12-07T05:02:16;36.40;;;29.60;;
4547;SDS011;2286;51.570;7.090;2022-12-07T05:04:43;35.45;;;30.23;;
4547;SDS011;2286;51.570;7.090;2022-12-07T05:07:09;33.45;;;29.48;;
4547;SDS011;2286;51.570;7.090;2022-12-07T05:09:37;35.45;;;29.67;;
4547;SDS011;2286;51.570;7.090;2022-12-07T05:12:04;34.30;;;29.88;;
4547;SDS011;2286;51.570;7.090;2022-12-07T05:14:31;36.15;;;29.80;;
4547;SDS011;2286;51.570;7.090;2022-12-07T05:16:58;35.72;;;29.50;;
4547;SDS011;2286;51.570;7.090;2022-12-07T05:19:25;34.83;;;29.52;;
4547;SDS011;2286;51.570;7.090;2022-12-07T05:21:52;37.45;;;29.00;;
4547;SDS011;2286;51.570;7.090;2022-12-07T05:24:19;34.17;;;29.58;;
4547;SDS011;2286;51.570;7.090;2022-12-07T05:26:47;37.00;;;29.60;;
4547;SDS011;2286;51.570;7.090;2022-12-07T05:29:15;37.60;;;30.15;;
4547;SDS011;2286;51.570;7.090;2022-12-07T05:31:43;35.72;;;30.30;;
4547;SDS011;2286;51.570;7.090;2022-12-07T05:34:10;35.47;;;30.20;;
4547;SDS011;2286;51.570;7.090;2022-12-07T05:36:37;32.90;;;28.80;;
4547;SDS011;2286;51.570;7.090;2022-12-07T05:39:04;36.03;;;28.90;;
4547;SDS011;2286;51.570;7.090;2022-12-07T05:41:32;35.47;;;29.67;;
4547;SDS011;2286;51.570;7.090;2022-12-07T05:44:17;36.60;;;30.45;;
4547;SDS011;2286;51.570;7.090;2022-12-07T05:46:44;34.33;;;28.85;;
4547;SDS011;2286;51.570;7.090;2022-12-07T05:49:11;35.33;;;30.08;;
4547;SDS011;2286;51.570;7.090;2022-12-07T05:51:38;39.38;;;30.23;;
4547;SDS011;2286;51.570;7.090;2022-12-07T05:54:05;34.58;;;29.25;;
4547;SDS011;2286;51.570;7.090;2022-12-07T05:56:32;36.08;;;29.33;;
4547;SDS011;2286;51.570;7.090;2022-12-07T05:58:59;37.33;;;29.75;;
4547;SDS011;2286;51.570;7.090;2022-12-07T06:01:45;34.45;;;29.55;;
4547;SDS011;2286;51.570;7.090;2022-12-07T06:04:11;30.52;;;27.38;;
4547;SDS011;2286;51.570;7.090;2022-12-07T06:06:38;33.42;;;28.48;;
4547;SDS011;2286;51.570;7.090;2022-12-07T06:09:05;28.90;;;26.00;;
4547;SDS011;2286;51.570;7.090;2022-12-07T06:11:32;29.95;;;26.85;;
4547;SDS011;2286;51.570;7.090;2022-12-07T06:14:16;33.80;;;27.48;;
4547;SDS011;2286;51.570;7.090;2022-12-07T06:16:44;28.27;;;25.35;;
4547;SDS011;2286;51.570;7.090;2022-12-07T06:19:11;28.75;;;25.75;;
4547;SDS011;2286;51.570;7.090;2022-12-07T06:21:38;29.73;;;25.75;;
4547;SDS011;2286;51.570;7.090;2022-12-07T06:24:05;33.30;;;27.85;;
4547;SDS011;2286;51.570;7.090;2022-12-07T06:26:32;32.58;;;26.38;;
4547;SDS011;2286;51.570;7.090;2022-12-07T06:28:59;28.80;;;25.15;;
4547;SDS011;2286;51.570;7.090;2022-12-07T06:31:26;32.78;;;25.70;;
4547;SDS011;2286;51.570;7.090;2022-12-07T06:33:57;28.27;;;22.92;;
4547;SDS011;2286;51.570;7.090;2022-12-07T06:36:24;32.97;;;23.35;;
4547;SDS011;2286;51.570;7.090;2022-12-07T06:38:51;27.40;;;24.60;;
4547;SDS011;2286;51.570;7.090;2022-12-07T06:41:18;28.38;;;24.02;;
4547;SDS011;2286;51.570;7.090;2022-12-07T06:43:45;27.05;;;24.15;;
4547;SDS011;2286;51.570;7.090;2022-12-07T06:46:12;31.70;;;24.95;;
4547;SDS011;2286;51.570;7.090;2022-12-07T06:48:39;26.70;;;23.88;;
4547;SDS011;2286;51.570;7.090;2022-12-07T06:51:07;28.35;;;25.35;;
4547;SDS011;2286;51.570;7.090;2022-12-07T06:53:34;35.53;;;25.48;;
4547;SDS011;2286;51.570;7.090;2022-12-07T06:56:01;27.63;;;24.58;;
4547;SDS011;2286;51.570;7.090;2022-12-07T06:58:28;32.22;;;25.52;;
4547;SDS011;2286;51.570;7.090;2022-12-07T07:00:55;31.33;;;25.02;;
4547;SDS011;2286;51.570;7.090;2022-12-07T07:03:22;32.65;;;26.98;;
4547;SDS011;2286;51.570;7.090;2022-12-07T07:05:49;33.22;;;26.15;;
4547;SDS011;2286;51.570;7.090;2022-12-07T07:08:17;28.67;;;25.42;;
4547;SDS011;2286;51.570;7.090;2022-12-07T07:10:44;33.05;;;27.13;;
4547;SDS011;2286;51.570;7.090;2022-12-07T07:13:11;32.65;;;25.70;;
4547;SDS011;2286;51.570;7.090;2022-12-07T07:15:37;32.85;;;27.50;;
4547;SDS011;2286;51.570;7.090;2022-12-07T07:18:04;27.92;;;24.40;;
4547;SDS011;2286;51.570;7.090;2022-12-07T07:20:31;31.58;;;26.42;;
4547;SDS011;2286;51.570;7.090;2022-12-07T07:22:58;32.45;;;24.10;;
4547;SDS011;2286;51.570;7.090;2022-12-07T07:25:26;28.42;;;23.15;;
4547;SDS011;2286;51.570;7.090;2022-12-07T07:27:53;33.08;;;23.50;;
4547;SDS011;2286;51.570;7.090;2022-12-07T07:30:20;28.98;;;23.30;;
4547;SDS011;2286;51.570;7.090;2022-12-07T07:32:47;30.45;;;23.15;;
4547;SDS011;2286;51.570;7.090;2022-12-07T07:35:14;29.98;;;24.75;;
4547;SDS011;2286;51.570;7.090;2022-12-07T07:37:41;26.20;;;22.00;;
4547;SDS011;2286;51.570;7.090;2022-12-07T07:40:08;30.88;;;22.55;;
4547;SDS011;2286;51.570;7.090;2022-12-07T07:42:37;28.08;;;22.02;;
4547;SDS011;2286;51.570;7.090;2022-12-07T07:45:04;24.67;;;21.27;;
4547;SDS011;2286;51.570;7.090;2022-12-07T07:47:31;23.67;;;20.42;;
4547;SDS011;2286;51.570;7.090;2022-12-07T07:49:58;27.40;;;22.17;;
4547;SDS011;2286;51.570;7.090;2022-12-07T07:52:25;34.15;;;21.52;;
4547;SDS011;2286;51.570;7.090;2022-12-07T07:54:52;27.75;;;21.83;;
4547;SDS011;2286;51.570;7.090;2022-12-07T07:57:19;27.10;;;20.60;;
4547;SDS011;2286;51.570;7.090;2022-12-07T07:59:47;25.55;;;21.60;;
4547;SDS011;2286;51.570;7.090;2022-12-07T08:02:14;25.30;;;20.65;;
4547;SDS011;2286;51.570;7.090;2022-12-07T08:04:43;24.77;;;20.92;;
4547;SDS011;2286;51.570;7.090;2022-12-07T08:07:10;24.05;;;21.45;;
4547;SDS011;2286;51.570;7.090;2022-12-07T08:09:37;29.83;;;21.73;;
4547;SDS011;2286;51.570;7.090;2022-12-07T08:12:04;24.88;;;21.05;;
4547;SDS011;2286;51.570;7.090;2022-12-07T08:14:31;23.17;;;20.15;;
4547;SDS011;2286;51.570;7.090;2022-12-07T08:17:00;22.73;;;20.30;;
4547;SDS011;2286;51.570;7.090;2022-12-07T08:19:27;22.88;;;19.55;;
4547;SDS011;2286;51.570;7.090;2022-12-07T08:21:54;25.63;;;19.50;;
4547;SDS011;2286;51.570;7.090;2022-12-07T08:24:21;30.38;;;19.80;;
4547;SDS011;2286;51.570;7.090;2022-12-07T08:26:48;31.73;;;20.23;;
4547;SDS011;2286;51.570;7.090;2022-12-07T08:29:15;24.65;;;18.85;;
4547;SDS011;2286;51.570;7.090;2022-12-07T08:31:42;26.83;;;20.02;;
4547;SDS011;2286;51.570;7.090;2022-12-07T08:34:11;23.45;;;18.10;;
4547;SDS011;2286;51.570;7.090;2022-12-07T08:36:38;27.05;;;17.75;;
4547;SDS011;2286;51.570;7.090;2022-12-07T08:39:05;28.00;;;17.00;;
4547;SDS011;2286;51.570;7.090;2022-12-07T08:41:32;19.05;;;16.00;;
4547;SDS011;2286;51.570;7.090;2022-12-07T08:43:59;24.25;;;16.38;;
4547;SDS011;2286;51.570;7.090;2022-12-07T08:46:26;21.50;;;16.25;;
4547;SDS011;2286;51.570;7.090;2022-12-07T08:49:01;22.30;;;15.63;;
4547;SDS011;2286;51.570;7.090;2022-12-07T08:51:32;21.52;;;14.95;;
4547;SDS011;2286;51.570;7.090;2022-12-07T08:53:59;17.42;;;14.15;;
4547;SDS011;2286;51.570;7.090;2022-12-07T08:56:28;17.27;;;13.07;;
4547;SDS011;2286;51.570;7.090;2022-12-07T08:58:55;16.88;;;13.70;;
4547;SDS011;2286;51.570;7.090;2022-12-07T09:01:23;20.90;;;13.80;;
4547;SDS011;2286;51.570;7.090;2022-12-07T09:03:50;17.35;;;13.80;;
4547;SDS011;2286;51.570;7.090;2022-12-07T09:06:16;19.43;;;12.80;;
4547;SDS011;2286;51.570;7.090;2022-12-07T09:08:47;15.35;;;12.75;;
4547;SDS011;2286;51.570;7.090;2022-12-07T09:11:16;18.05;;;13.23;;
4547;SDS011;2286;51.570;7.090;2022-12-07T09:13:43;19.77;;;14.13;;
4547;SDS011;2286;51.570;7.090;2022-12-07T09:16:09;15.35;;;11.65;;
4547;SDS011;2286;51.570;7.090;2022-12-07T09:18:36;13.97;;;11.53;;
4547;SDS011;2286;51.570;7.090;2022-12-07T09:21:04;12.57;;;10.67;;
4547;SDS011;2286;51.570;7.090;2022-12-07T09:23:31;10.67;;;9.23;;
4547;SDS011;2286;51.570;7.090;2022-12-07T09:26:00;16.07;;;10.50;;
4547;SDS011;2286;51.570;7.090;2022-12-07T09:28:27;13.75;;;9.63;;
4547;SDS011;2286;51.570;7.090;2022-12-07T09:30:54;11.85;;;10.20;;
4547;SDS011;2286;51.570;7.090;2022-12-07T09:33:21;14.33;;;9.43;;
4547;SDS011;2286;51.570;7.090;2022-12-07T09:35:48;17.00;;;9.17;;
4547;SDS011;2286;51.570;7.090;2022-12-07T09:38:16;11.77;;;9.85;;
4547;SDS011;2286;51.570;7.090;2022-12-07T09:40:43;14.30;;;8.57;;
4547;SDS011;2286;51.570;7.090;2022-12-07T09:43:13;15.43;;;8.48;;
4547;SDS011;2286;51.570;7.090;2022-12-07T09:45:43;10.75;;;8.02;;
4547;SDS011;2286;51.570;7.090;2022-12-07T09:48:14;14.05;;;8.25;;
4547;SDS011;2286;51.570;7.090;2022-12-07T09:50:46;10.30;;;8.45;;
4547;SDS011;2286;51.570;7.090;2022-12-07T09:53:14;10.40;;;7.35;;
4547;SDS011;2286;51.570;7.090;2022-12-07T09:55:44;10.27;;;7.47;;
4547;SDS011;2286;51.570;7.090;2022-12-07T09:58:13;7.97;;;6.63;;
4547;SDS011;2286;51.570;7.090;2022-12-07T10:00:45;12.82;;;8.25;;
4547;SDS011;2286;51.570;7.090;2022-12-07T10:03:12;13.27;;;9.07;;
4547;SDS011;2286;51.570;7.090;2022-12-07T10:05:40;12.68;;;7.10;;
4547;SDS011;2286;51.570;7.090;2022-12-07T10:08:10;19.50;;;8.43;;
4547;SDS011;2286;51.570;7.090;2022-12-07T10:10:38;14.80;;;8.33;;
4547;SDS011;2286;51.570;7.090;2022-12-07T10:13:06;9.40;;;7.93;;
4547;SDS011;2286;51.570;7.090;2022-12-07T10:15:43;12.83;;;7.30;;
4547;SDS011;2286;51.570;7.090;2022-12-07T10:18:17;14.10;;;7.50;;
4547;SDS011;2286;51.570;7.090;2022-12-07T10:20:46;11.17;;;6.63;;
4547;SDS011;2286;51.570;7.090;2022-12-07T10:23:15;8.60;;;6.00;;
4547;SDS011;2286;51.570;7.090;2022-12-07T10:25:43;9.80;;;7.47;;
4547;SDS011;2286;51.570;7.090;2022-12-07T10:28:13;10.83;;;5.90;;
4547;SDS011;2286;51.570;7.090;2022-12-07T10:30:53;7.13;;;5.90;;
4547;SDS011;2286;51.570;7.090;2022-12-07T10:33:27;9.47;;;6.93;;
4547;SDS011;2286;51.570;7.090;2022-12-07T10:35:56;11.80;;;6.10;;
4547;SDS011;2286;51.570;7.090;2022-12-07T10:38:23;9.87;;;6.23;;
4547;SDS011;2286;51.570;7.090;2022-12-07T10:41:02;9.00;;;5.20;;
4547;SDS011;2286;51.570;7.090;2022-12-07T10:43:30;16.40;;;6.33;;
4547;SDS011;2286;51.570;7.090;2022-12-07T10:49:23;10.10;;;5.50;;
4547;SDS011;2286;51.570;7.090;2022-12-07T10:52:14;9.07;;;6.00;;
4547;SDS011;2286;51.570;7.090;2022-12-07T10:54:57;9.37;;;5.40;;
4547;SDS011;2286;51.570;7.090;2022-12-07T10:57:37;6.40;;;5.23;;
4547;SDS011;2286;51.570;7.090;2022-12-07T11:00:14;14.50;;;5.43;;
4547;SDS011;2286;51.570;7.090;2022-12-07T11:02:57;10.53;;;5.37;;
4547;SDS011;2286;51.570;7.090;2022-12-07T11:05:48;8.90;;;5.70;;
4547;SDS011;2286;51.570;7.090;2022-12-07T11:08:21;11.97;;;5.20;;
4547;SDS011;2286;51.570;7.090;2022-12-07T11:11:05;6.17;;;4.83;;
4547;SDS011;2286;51.570;7.090;2022-12-07T11:13:37;8.83;;;5.70;;
4547;SDS011;2286;51.570;7.090;2022-12-07T11:16:16;8.70;;;5.87;;
4547;SDS011;2286;51.570;7.090;2022-12-07T11:18:53;6.93;;;6.03;;
4547;SDS011;2286;51.570;7.090;2022-12-07T11:21:33;8.13;;;4.80;;
4547;SDS011;2286;51.570;7.090;2022-12-07T11:24:10;9.83;;;4.50;;
4547;SDS011;2286;51.570;7.090;2022-12-07T11:26:46;8.57;;;4.67;;
4547;SDS011;2286;51.570;7.090;2022-12-07T11:29:26;8.10;;;4.40;;
4547;SDS011;2286;51.570;7.090;2022-12-07T11:32:04;7.17;;;4.30;;
4547;SDS011;2286;51.570;7.090;2022-12-07T11:34:42;4.53;;;4.00;;
4547;SDS011;2286;51.570;7.090;2022-12-07T11:37:19;8.30;;;4.30;;
4547;SDS011;2286;51.570;7.090;2022-12-07T11:39:52;8.47;;;4.40;;
4547;SDS011;2286;51.570;7.090;2022-12-07T11:42:22;8.77;;;4.73;;
4547;SDS011;2286;51.570;7.090;2022-12-07T11:44:52;4.93;;;3.20;;
4547;SDS011;2286;51.570;7.090;2022-12-07T11:47:25;5.47;;;3.53;;
4547;SDS011;2286;51.570;7.090;2022-12-07T11:50:00;7.13;;;3.60;;
4547;SDS011;2286;51.570;7.090;2022-12-07T11:52:32;7.40;;;4.00;;
4547;SDS011;2286;51.570;7.090;2022-12-07T11:55:13;7.27;;;3.30;;
4547;SDS011;2286;51.570;7.090;2022-12-07T11:57:48;7.23;;;3.87;;
4547;SDS011;2286;51.570;7.090;2022-12-07T12:00:19;6.97;;;3.30;;
4547;SDS011;2286;51.570;7.090;2022-12-07T12:02:48;5.57;;;3.77;;
4547;SDS011;2286;51.570;7.090;2022-12-07T12:05:22;5.13;;;3.53;;
4547;SDS011;2286;51.570;7.090;2022-12-07T12:07:52;8.00;;;3.10;;
4547;SDS011;2286;51.570;7.090;2022-12-07T12:10:27;5.73;;;2.90;;
4547;SDS011;2286;51.570;7.090;2022-12-07T12:13:13;6.20;;;3.43;;
4547;SDS011;2286;51.570;7.090;2022-12-07T12:15:58;8.13;;;3.10;;
4547;SDS011;2286;51.570;7.090;2022-12-07T12:21:38;8.30;;;2.57;;
4547;SDS011;2286;51.570;7.090;2022-12-07T12:24:08;9.03;;;2.57;;
4547;SDS011;2286;51.570;7.090;2022-12-07T12:26:41;4.53;;;2.73;;
4547;SDS011;2286;51.570;7.090;2022-12-07T12:29:21;6.07;;;2.87;;
4547;SDS011;2286;51.570;7.090;2022-12-07T12:32:04;5.20;;;2.90;;
4547;SDS011;2286;51.570;7.090;2022-12-07T12:34:39;5.10;;;3.00;;
4547;SDS011;2286;51.570;7.090;2022-12-07T12:49:24;6.73;;;2.33;;
4547;SDS011;2286;51.570;7.090;2022-12-07T12:58:28;8.87;;;2.80;;
4547;SDS011;2286;51.570;7.090;2022-12-07T13:04:14;5.00;;;2.63;;
4547;SDS011;2286;51.570;7.090;2022-12-07T13:06:58;4.00;;;2.40;;
4547;SDS011;2286;51.570;7.090;2022-12-07T13:09:25;5.90;;;2.63;;
4547;SDS011;2286;51.570;7.090;2022-12-07T13:11:56;9.30;;;3.70;;
4547;SDS011;2286;51.570;7.090;2022-12-07T13:14:38;6.70;;;3.07;;
4547;SDS011;2286;51.570;7.090;2022-12-07T13:23:10;11.23;;;3.90;;
4547;SDS011;2286;51.570;7.090;2022-12-07T13:25:43;7.90;;;3.30;;
4547;SDS011;2286;51.570;7.090;2022-12-07T13:31:03;11.00;;;3.20;;
4547;SDS011;2286;51.570;7.090;2022-12-07T13:33:37;6.07;;;3.03;;
4547;SDS011;2286;51.570;7.090;2022-12-07T13:36:08;5.57;;;2.90;;
4547;SDS011;2286;51.570;7.090;2022-12-07T13:38:48;5.07;;;2.77;;
4547;SDS011;2286;51.570;7.090;2022-12-07T13:41:20;10.80;;;3.47;;
4547;SDS011;2286;51.570;7.090;2022-12-07T13:43:59;5.10;;;3.67;;
4547;SDS011;2286;51.570;7.090;2022-12-07T13:46:35;9.03;;;3.57;;
4547;SDS011;2286;51.570;7.090;2022-12-07T13:49:15;5.00;;;3.07;;
4547;SDS011;2286;51.570;7.090;2022-12-07T13:51:44;4.53;;;3.00;;
4547;SDS011;2286;51.570;7.090;2022-12-07T13:54:12;4.00;;;2.63;;
4547;SDS011;2286;51.570;7.090;2022-12-07T13:56:40;4.93;;;2.97;;
4547;SDS011;2286;51.570;7.090;2022-12-07T13:59:10;10.87;;;3.67;;
4547;SDS011;2286;51.570;7.090;2022-12-07T14:01:42;6.57;;;2.63;;
4547;SDS011;2286;51.570;7.090;2022-12-07T14:04:16;6.33;;;3.00;;
4547;SDS011;2286;51.570;7.090;2022-12-07T14:06:48;5.33;;;3.20;;
4547;SDS011;2286;51.570;7.090;2022-12-07T14:09:18;8.30;;;3.40;;
4547;SDS011;2286;51.570;7.090;2022-12-07T14:11:47;8.00;;;3.70;;
4547;SDS011;2286;51.570;7.090;2022-12-07T14:14:17;6.27;;;3.03;;
4547;SDS011;2286;51.570;7.090;2022-12-07T14:16:56;4.77;;;3.60;;
4547;SDS011;2286;51.570;7.090;2022-12-07T14:19:46;9.77;;;4.70;;
4547;SDS011;2286;51.570;7.090;2022-12-07T14:22:23;4.93;;;3.57;;
4547;SDS011;2286;51.570;7.090;2022-12-07T14:24:58;8.07;;;4.23;;
4547;SDS011;2286;51.570;7.090;2022-12-07T14:27:31;9.87;;;5.40;;
4547;SDS011;2286;51.570;7.090;2022-12-07T14:30:01;6.37;;;4.60;;
4547;SDS011;2286;51.570;7.090;2022-12-07T14:32:31;7.43;;;4.97;;
4547;SDS011;2286;51.570;7.090;2022-12-07T14:35:02;5.93;;;4.73;;
4547;SDS011;2286;51.570;7.090;2022-12-07T14:37:35;7.80;;;5.20;;
4547;SDS011;2286;51.570;7.090;2022-12-07T14:40:04;10.03;;;5.30;;
4547;SDS011;2286;51.570;7.090;2022-12-07T14:42:32;9.27;;;5.60;;
4547;SDS011;2286;51.570;7.090;2022-12-07T14:45:00;6.60;;;4.93;;
4547;SDS011;2286;51.570;7.090;2022-12-07T14:47:27;7.93;;;4.68;;
4547;SDS011;2286;51.570;7.090;2022-12-07T14:49:56;11.27;;;5.37;;
4547;SDS011;2286;51.570;7.090;2022-12-07T14:52:24;8.50;;;6.00;;
4547;SDS011;2286;51.570;7.090;2022-12-07T14:54:55;8.82;;;5.65;;
4547;SDS011;2286;51.570;7.090;2022-12-07T14:57:22;8.95;;;5.43;;
4547;SDS011;2286;51.570;7.090;2022-12-07T14:59:49;11.95;;;6.00;;
4547;SDS011;2286;51.570;7.090;2022-12-07T15:02:16;9.17;;;6.47;;
4547;SDS011;2286;51.570;7.090;2022-12-07T15:04:44;10.10;;;5.53;;
4547;SDS011;2286;51.570;7.090;2022-12-07T15:07:14;9.30;;;6.60;;
4547;SDS011;2286;51.570;7.090;2022-12-07T15:09:45;14.27;;;5.97;;
4547;SDS011;2286;51.570;7.090;2022-12-07T15:12:12;12.88;;;6.30;;
4547;SDS011;2286;51.570;7.090;2022-12-07T15:14:39;9.07;;;7.03;;
4547;SDS011;2286;51.570;7.090;2022-12-07T15:17:08;8.02;;;5.38;;
4547;SDS011;2286;51.570;7.090;2022-12-07T15:19:37;10.38;;;6.75;;
4547;SDS011;2286;51.570;7.090;2022-12-07T15:22:04;10.10;;;5.83;;
4547;SDS011;2286;51.570;7.090;2022-12-07T15:24:32;9.67;;;6.47;;
4547;SDS011;2286;51.570;7.090;2022-12-07T15:27:00;8.63;;;5.88;;
4547;SDS011;2286;51.570;7.090;2022-12-07T15:29:27;10.88;;;7.15;;
4547;SDS011;2286;51.570;7.090;2022-12-07T15:31:55;13.32;;;6.38;;
4547;SDS011;2286;51.570;7.090;2022-12-07T15:34:22;11.10;;;6.32;;
4547;SDS011;2286;51.570;7.090;2022-12-07T15:36:50;17.70;;;7.87;;
4547;SDS011;2286;51.570;7.090;2022-12-07T15:39:17;13.17;;;6.40;;
4547;SDS011;2286;51.570;7.090;2022-12-07T15:41:46;11.30;;;7.07;;
4547;SDS011;2286;51.570;7.090;2022-12-07T15:44:13;12.82;;;6.18;;
4547;SDS011;2286;51.570;7.090;2022-12-07T15:46:58;11.57;;;6.85;;
4547;SDS011;2286;51.570;7.090;2022-12-07T15:49:26;12.40;;;7.00;;
4547;SDS011;2286;51.570;7.090;2022-12-07T15:51:54;12.40;;;8.45;;
4547;SDS011;2286;51.570;7.090;2022-12-07T15:54:22;6.80;;;6.03;;
4547;SDS011;2286;51.570;7.090;2022-12-07T15:56:52;13.73;;;7.00;;